Flight Track Log - Related Links

Times and Time Zones

All times are in EDT time to prevent confusion due to time zone crossing. See the N7222Q flight status page for this flight to view local times or setup timezone preferences in your user account.

Time Position Orientation Groundspeed Altitude Reporting Facility
EDT Latitude Longitude Course Direction KTS MPH feet Rate Location/Type
Sat 07:50:03 PM 43.5292 -116.1961 136° Southeast 90 104 5,200  Level Salt Lake Center
Sat 07:54:09 PM 43.4519 -116.0933 140° Southeast 92 106 7,600 586 Climbing Salt Lake Center
Sat 07:55:10 PM 43.4314 -116.0697 139° Southeast 93 107 8,200 585 Climbing Salt Lake Center
Sat 07:56:12 PM 43.4114 -116.0458 168° South 97 112 8,800 537 Climbing Salt Lake Center
Sat 07:57:13 PM 43.3842 -116.0381 141° Southeast 95 109 9,300 393 Climbing Salt Lake Center
Sat 07:58:14 PM 43.3600 -116.0108 136° Southeast 105 121 9,600 195 Climbing Salt Lake Center
Sat 07:59:16 PM 43.3372 -115.9811 135° Southeast 115 132 9,700  Climbing Salt Lake Center
Sat 08:00:17 PM 43.3122 -115.9467 144° Southeast 120 138 9,600 -49 Descending Salt Lake Center
Sat 08:01:19 PM 43.2839 -115.9189 140° Southeast 121 139 9,600  Level Salt Lake Center
Sat 08:02:20 PM 43.2622 -115.8936 142° Southeast 106 122 9,600  Level Salt Lake Center
Sat 08:03:21 PM 43.2361 -115.8656 138° Southeast 113 130 9,600  Level Salt Lake Center
Sat 08:04:22 PM 43.2122 -115.8361 136° Southeast 111 128 9,600 49 Level Salt Lake Center
Sat 08:05:24 PM 43.1897 -115.8067 139° Southeast 116 133 9,700  Climbing Salt Lake Center
Sat 08:06:25 PM 43.1628 -115.7742 142° Southeast 122 140 9,600 -49 Descending Salt Lake Center
Sat 08:07:26 PM 43.1358 -115.7458 138° Southeast 118 136 9,600  Level Salt Lake Center
Sat 08:08:27 PM 43.1122 -115.7169 125° Southeast 117 135 9,600  Level Salt Lake Center
Sat 08:09:29 PM 43.0925 -115.6786 121° Southeast 117 135 9,600  Level Salt Lake Center
Sat 08:10:30 PM 43.0753 -115.6386 117° Southeast 116 133 9,600  Level Salt Lake Center
Sat 08:11:31 PM 43.0608 -115.6006 115° Southeast 116 133 9,600  Level Salt Lake Center
Sat 08:12:34 PM 43.0461 -115.5583 113° Southeast 118 136 9,600  Level Salt Lake Center
Sat 08:13:34 PM 43.0328 -115.5156 115° Southeast 117 135 9,600  Level Salt Lake Center
Sat 08:14:35 PM 43.0200 -115.4781 121° Southeast 115 132 9,600  Level Salt Lake Center
Sat 08:15:36 PM 43.0033 -115.4397 136° Southeast 114 131 9,600 49 Level Salt Lake Center
Sat 08:16:37 PM 42.9794 -115.4086 150° Southeast 116 133 9,700 49 Climbing Salt Lake Center
Sat 08:17:39 PM 42.9531 -115.3878 153° Southeast 114 131 9,700  Level Salt Lake Center
Sat 08:18:40 PM 42.9233 -115.3672 152° Southeast 113 130 9,700  Level Salt Lake Center
Sat 08:19:41 PM 42.8936 -115.3458 147° Southeast 116 133 9,700  Level Salt Lake Center
Sat 08:20:42 PM 42.8675 -115.3231 147° Southeast 115 132 9,700 -49 Level Salt Lake Center
Sat 08:21:43 PM 42.8389 -115.2975 152° Southeast 117 135 9,600 -148 Descending Salt Lake Center
Sat 08:22:44 PM 42.8097 -115.2767 157° South 114 131 9,400 -49 Descending Salt Lake Center
Sat 08:23:46 PM 42.7831 -115.2611 154° Southeast 109 125 9,500 98 Climbing Salt Lake Center
Sat 08:24:47 PM 42.7553 -115.2425 155° Southeast 108 124 9,600 49 Climbing Salt Lake Center
Sat 08:25:48 PM 42.7286 -115.2256 155° Southeast 103 119 9,600 49 Level Salt Lake Center
Sat 08:26:49 PM 42.7039 -115.2100 157° South 102 117 9,700 49 Climbing Salt Lake Center
Sat 08:27:50 PM 42.6719 -115.1919 159° South 115 132 9,700 -49 Level Salt Lake Center
Sat 08:28:51 PM 42.6419 -115.1767 155° Southeast 112 129 9,600 -49 Descending Salt Lake Center
Sat 08:29:52 PM 42.6150 -115.1594 154° Southeast 110 127 9,600  Level Salt Lake Center
Sat 08:30:53 PM 42.5856 -115.1397 156° South 113 130 9,600 -49 Level Salt Lake Center
Sat 08:31:54 PM 42.5550 -115.1211 158° South 113 130 9,500 49 Descending Salt Lake Center
Sat 08:32:55 PM 42.5281 -115.1067 160° South 111 128 9,700  Climbing Salt Lake Center
Sat 08:33:56 PM 42.4972 -115.0917 155° Southeast 111 128 9,500 -146 Descending Salt Lake Center
Sat 08:34:58 PM 42.4681 -115.0736 148° Southeast 110 127 9,400  Descending Salt Lake Center
Sat 08:35:59 PM 42.4450 -115.0544 148° Southeast 104 120 9,500 49 Climbing Salt Lake Center
Sat 08:37:00 PM 42.4203 -115.0336 139° Southeast 101 116 9,500  Level Salt Lake Center
Sat 08:38:01 PM 42.3994 -115.0094 146° Southeast 103 119 9,500  Level Salt Lake Center
Sat 08:39:02 PM 42.3733 -114.9858 150° Southeast 105 121 9,500 49 Level Salt Lake Center
Sat 08:40:03 PM 42.3483 -114.9667 152° Southeast 102 117 9,600 148 Climbing Salt Lake Center
Sat 08:41:04 PM 42.3236 -114.9489 151° Southeast 103 119 9,800  Climbing Salt Lake Center
Sat 08:42:05 PM 42.2956 -114.9275 154° Southeast 108 124 9,600 -98 Descending Salt Lake Center
Sat 08:43:06 PM 42.2669 -114.9089 156° South 108 124 9,600 -49 Level Salt Lake Center
Sat 08:44:07 PM 42.2433 -114.8944 147° Southeast 111 128 9,500 -49 Descending Salt Lake Center
Sat 08:45:09 PM 42.2139 -114.8686 147° Southeast 114 131 9,500  Level Salt Lake Center

Login

Don't have an account? Register now (free) for customized features, flight alerts, and more!